createdAt,value
2017-05-28T00:01:15.237Z,74.50
2017-05-28T00:03:43.558Z,75.40
2017-05-28T00:06:11.790Z,75.60
2017-05-28T00:08:40.111Z,76.30
2017-05-28T00:11:08.383Z,77.20
2017-05-28T00:13:36.663Z,77.00
2017-05-28T00:16:04.903Z,75.90
2017-05-28T00:18:33.135Z,75.60
2017-05-28T00:21:01.368Z,75.20
2017-05-28T00:23:29.663Z,77.20
2017-05-28T00:25:57.943Z,76.10
2017-05-28T00:28:26.215Z,76.50
2017-05-28T00:30:54.443Z,76.50
2017-05-28T00:33:22.671Z,76.10
2017-05-28T00:35:50.899Z,75.80
2017-05-28T00:38:19.131Z,76.30
2017-05-28T00:40:47.368Z,75.20
2017-05-28T00:43:15.667Z,75.50
2017-05-28T00:45:43.897Z,76.20
2017-05-28T00:48:12.122Z,77.80
2017-05-28T00:50:40.354Z,78.10
2017-05-28T00:53:08.588Z,78.20
2017-05-28T00:55:36.820Z,78.30
2017-05-28T00:58:05.051Z,78.40
2017-05-28T01:00:33.384Z,78.20
2017-05-28T01:03:01.623Z,78.80
2017-05-28T01:05:29.940Z,77.80
2017-05-28T01:07:58.213Z,78.40
2017-05-28T01:10:26.447Z,76.40
2017-05-28T01:12:54.674Z,78.30
2017-05-28T01:15:22.942Z,79.20
2017-05-28T01:17:51.167Z,80.30
2017-05-28T01:20:19.400Z,80.80
2017-05-28T01:22:47.632Z,80.50
2017-05-28T01:25:15.099Z,80.50
2017-05-28T01:27:43.389Z,80.60
2017-05-28T01:30:11.623Z,81.00
2017-05-28T01:32:40.080Z,80.60
2017-05-28T01:35:08.315Z,80.60
2017-05-28T01:37:36.548Z,81.30
2017-05-28T01:40:04.868Z,80.10
2017-05-28T01:42:33.148Z,78.80
2017-05-28T01:45:00.606Z,78.80
2017-05-28T01:47:28.895Z,77.30
2017-05-28T01:49:57.151Z,78.90
2017-05-28T01:52:25.395Z,79.70
2017-05-28T01:54:53.699Z,78.70
2017-05-28T01:57:21.984Z,80.30
2017-05-28T01:59:50.261Z,81.00
2017-05-28T02:02:18.484Z,81.60
2017-05-28T02:04:46.802Z,81.60
2017-05-28T02:07:15.078Z,82.50
2017-05-28T02:09:43.360Z,83.10
2017-05-28T02:12:11.598Z,83.50
2017-05-28T02:14:39.912Z,83.50
2017-05-28T02:17:08.159Z,83.90
2017-05-28T02:19:36.389Z,83.80
2017-05-28T02:22:04.614Z,84.10
2017-05-28T02:24:32.846Z,84.30
2017-05-28T02:27:01.078Z,84.20
2017-05-28T02:29:29.317Z,83.90
2017-05-28T02:31:57.542Z,84.60
2017-05-28T02:34:25.812Z,84.10
2017-05-28T02:36:54.039Z,83.90
2017-05-28T02:39:22.340Z,84.30
2017-05-28T02:41:50.566Z,84.50
2017-05-28T02:44:18.812Z,85.20
2017-05-28T02:46:47.055Z,86.30
2017-05-28T02:49:15.350Z,85.50
2017-05-28T02:51:43.593Z,85.30
2017-05-28T02:54:11.913Z,85.90
2017-05-28T02:56:40.142Z,85.80
2017-05-28T02:59:08.371Z,86.60
2017-05-28T03:01:36.596Z,86.50
2017-05-28T03:04:04.822Z,86.40
2017-05-28T03:06:33.073Z,86.20
2017-05-28T03:09:01.351Z,85.60
2017-05-28T03:11:29.632Z,86.20
2017-05-28T03:13:57.872Z,86.10
2017-05-28T03:16:26.103Z,86.70
2017-05-28T03:18:54.340Z,87.00
2017-05-28T03:21:22.578Z,87.20
2017-05-28T03:23:50.819Z,86.70
2017-05-28T03:26:19.085Z,87.00
2017-05-28T03:28:47.320Z,87.00
2017-05-28T03:31:15.550Z,86.60
2017-05-28T03:33:43.783Z,86.60
2017-05-28T03:36:12.025Z,85.90
2017-05-28T03:38:40.254Z,85.90
2017-05-28T03:41:08.498Z,85.40
2017-05-28T03:43:36.735Z,84.90
2017-05-28T03:46:05.082Z,85.50
2017-05-28T03:48:33.315Z,86.30
2017-05-28T03:51:01.631Z,86.40
2017-05-28T03:53:29.871Z,85.90
2017-05-28T03:55:58.179Z,84.60
2017-05-28T03:58:26.425Z,85.20
2017-05-28T04:00:54.664Z,85.00
2017-05-28T04:03:22.999Z,84.60
2017-05-28T04:05:51.281Z,83.80
2017-05-28T04:08:19.512Z,84.20
2017-05-28T04:10:47.840Z,83.70
2017-05-28T04:13:16.067Z,82.90
2017-05-28T04:15:44.300Z,83.00
2017-05-28T04:18:12.542Z,83.10
2017-05-28T04:20:40.830Z,81.30
2017-05-28T04:23:09.096Z,80.60
2017-05-28T04:25:37.384Z,80.70
2017-05-28T04:28:05.628Z,79.50
2017-05-28T04:30:33.859Z,76.80
2017-05-28T04:33:02.096Z,76.50
2017-05-28T04:35:29.566Z,76.40
2017-05-28T04:37:57.807Z,76.50
2017-05-28T04:40:26.116Z,76.50
2017-05-28T04:42:54.349Z,76.30
2017-05-28T04:45:22.575Z,75.90
2017-05-28T04:47:50.848Z,76.50
2017-05-28T04:50:19.083Z,75.90
2017-05-28T04:52:47.315Z,76.10
2017-05-28T04:55:15.677Z,77.50
2017-05-28T04:57:43.899Z,77.00
2017-05-28T05:00:12.218Z,76.40
2017-05-28T05:02:40.458Z,74.20
2017-05-28T05:05:08.691Z,70.50
2017-05-28T05:07:36.922Z,61.60
2017-05-28T05:10:05.155Z,55.50
2017-05-28T05:12:33.384Z,50.30
2017-05-28T05:15:01.608Z,45.60
2017-05-28T05:17:29.838Z,41.80
2017-05-28T05:19:58.112Z,37.60
2017-05-28T05:22:26.336Z,34.70
2017-05-28T05:24:54.559Z,33.20
2017-05-28T05:27:22.800Z,31.40
2017-05-28T05:29:51.027Z,30.50
2017-05-28T05:32:19.267Z,29.90
2017-05-28T05:34:47.554Z,30.90
2017-05-28T05:37:15.779Z,29.30
2017-05-28T05:39:44.016Z,29.20
2017-05-28T05:42:11.475Z,29.20
2017-05-28T05:44:39.739Z,29.30
2017-05-28T07:32:37.903Z,52.20
2017-05-28T07:35:06.163Z,52.30
2017-05-28T07:37:34.425Z,54.00
2017-05-28T07:40:02.647Z,52.70
2017-05-28T07:42:30.879Z,53.00
2017-05-28T07:44:59.102Z,52.80
2017-05-28T07:47:27.323Z,52.00
2017-05-28T07:49:55.602Z,53.50
2017-05-28T07:52:23.837Z,52.60
2017-05-28T07:54:52.062Z,52.90
2017-05-28T07:57:20.294Z,51.00
2017-05-28T07:59:48.603Z,51.10
2017-05-28T08:02:16.839Z,52.00
2017-05-28T08:04:45.159Z,50.60
2017-05-28T08:07:13.390Z,51.10
2017-05-28T08:09:41.675Z,51.00
2017-05-28T08:12:09.915Z,51.00
2017-05-28T08:14:38.167Z,49.70
2017-05-28T08:17:06.440Z,50.70
2017-05-28T08:19:34.671Z,50.70
2017-05-28T08:22:02.896Z,49.00
2017-05-28T08:24:31.127Z,49.40
2017-05-28T08:26:59.372Z,48.00
2017-05-28T08:29:27.711Z,49.20
2017-05-28T08:31:55.946Z,48.80
2017-05-28T08:34:24.265Z,48.10
2017-05-28T08:36:52.538Z,47.40
2017-05-28T08:39:20.765Z,51.20
2017-05-28T08:41:49.083Z,47.70
2017-05-28T08:44:17.312Z,46.70
2017-05-28T08:46:45.546Z,46.00
2017-05-28T08:49:13.784Z,47.00
2017-05-28T08:51:42.073Z,45.80
2017-05-28T08:54:10.303Z,45.70
2017-05-28T08:56:38.643Z,45.50
2017-05-28T08:59:06.094Z,45.40
2017-05-28T09:01:34.372Z,45.30
2017-05-28T09:04:02.639Z,46.30
2017-05-28T09:06:30.922Z,46.30
2017-05-28T09:08:59.159Z,44.80
2017-05-28T09:11:27.390Z,47.10
2017-05-28T09:13:55.631Z,45.50
2017-05-28T09:16:23.859Z,44.50
2017-05-28T09:18:52.093Z,44.50
2017-05-28T09:21:21.174Z,45.30
2017-05-28T09:23:49.418Z,44.40
2017-05-28T09:26:17.644Z,44.90
2017-05-28T09:28:45.879Z,44.50
2017-05-28T09:31:14.110Z,45.40
2017-05-28T09:33:41.643Z,45.50
2017-05-28T09:36:09.882Z,43.60
2017-05-28T09:38:38.199Z,42.90
2017-05-28T09:41:06.432Z,43.80
2017-05-28T09:43:34.658Z,42.40
2017-05-28T09:46:02.902Z,42.30
2017-05-28T09:48:31.132Z,41.90
2017-05-28T09:50:59.372Z,41.30
2017-05-28T09:53:27.603Z,45.80
2017-05-28T09:55:55.844Z,41.10
2017-05-28T09:58:24.075Z,40.40
2017-05-28T10:00:52.317Z,39.20
2017-05-28T10:03:20.546Z,40.30
2017-05-28T10:05:48.776Z,40.60
2017-05-28T10:08:17.011Z,40.20
2017-05-28T10:10:45.239Z,39.60
2017-05-28T10:13:13.549Z,39.80
2017-05-28T10:15:41.806Z,40.30
2017-05-28T10:18:10.091Z,39.20
2017-05-28T10:20:38.318Z,39.20
2017-05-28T10:23:06.638Z,39.20
2017-05-28T10:25:34.876Z,39.40
2017-05-28T10:28:03.114Z,41.20
2017-05-28T10:30:31.334Z,40.50
2017-05-28T10:32:59.575Z,39.40
2017-05-28T10:35:27.914Z,38.70
2017-05-28T10:37:56.160Z,38.90
2017-05-28T10:40:24.383Z,41.20
2017-05-28T10:42:52.623Z,40.40
2017-05-28T10:45:20.919Z,39.10
2017-05-28T10:47:49.154Z,42.00
2017-05-28T10:50:17.379Z,40.90
2017-05-28T10:52:45.615Z,38.30
2017-05-28T10:55:13.916Z,39.80
2017-05-28T10:57:42.144Z,39.00
2017-05-28T11:00:10.371Z,38.30
2017-05-28T11:02:38.645Z,39.20
2017-05-28T11:05:06.875Z,37.20
2017-05-28T11:07:35.103Z,38.00
2017-05-28T11:10:03.330Z,38.90
2017-05-28T11:12:31.560Z,38.70
2017-05-28T11:14:59.800Z,38.00
2017-05-28T11:17:28.025Z,39.30
2017-05-28T11:19:56.259Z,37.90
2017-05-28T11:22:30.702Z,37.60
2017-05-28T11:24:58.938Z,37.10
2017-05-28T11:27:27.231Z,40.00
2017-05-28T11:29:55.472Z,36.70
2017-05-28T11:32:23.695Z,36.90
2017-05-28T11:34:51.955Z,37.00
2017-05-28T11:37:20.195Z,35.50
2017-05-28T11:39:47.655Z,35.50
2017-05-28T11:42:15.964Z,37.20
2017-05-28T11:44:44.189Z,37.00
2017-05-28T11:47:12.429Z,37.20
2017-05-28T11:49:40.659Z,36.80
2017-05-28T11:52:08.904Z,37.90
2017-05-28T11:54:37.132Z,37.10
2017-05-28T11:57:05.369Z,36.90
2017-05-28T11:59:33.687Z,36.70
2017-05-28T12:02:01.963Z,36.70
2017-05-28T12:04:29.427Z,36.80
2017-05-28T12:06:57.655Z,35.10
2017-05-28T12:09:25.885Z,35.50
2017-05-28T12:11:54.125Z,38.10
2017-05-28T12:14:22.352Z,37.70
2017-05-28T12:16:50.692Z,37.00
2017-05-28T12:19:18.927Z,37.20
2017-05-28T12:21:47.153Z,42.00
2017-05-28T12:24:15.415Z,37.10
2017-05-28T12:26:43.682Z,36.80
2017-05-28T12:29:11.914Z,37.50
2017-05-28T12:31:40.244Z,36.40
2017-05-28T12:34:08.479Z,36.80
2017-05-28T12:36:36.754Z,36.20
2017-05-28T12:39:04.990Z,36.80
2017-05-28T12:41:33.218Z,36.70
2017-05-28T12:44:01.516Z,37.40
2017-05-28T12:46:29.752Z,37.50
2017-05-28T12:48:57.256Z,37.50
2017-05-28T12:51:25.480Z,36.30
2017-05-28T12:53:53.709Z,36.00
2017-05-28T12:56:21.936Z,35.70
2017-05-28T12:58:50.162Z,35.80
2017-05-28T13:01:18.403Z,33.70
2017-05-28T13:03:46.627Z,34.70
2017-05-28T13:06:14.860Z,35.20
2017-05-28T13:08:43.156Z,33.90
2017-05-28T13:11:11.387Z,34.40
2017-05-28T13:13:39.696Z,33.70
2017-05-28T13:16:07.940Z,33.00
2017-05-28T13:18:36.244Z,33.40
2017-05-28T13:21:04.484Z,38.10
2017-05-28T13:23:32.710Z,38.00
2017-05-28T13:26:01.076Z,34.60
2017-05-28T13:28:29.311Z,34.50
2017-05-28T13:30:57.623Z,34.00
2017-05-28T13:33:25.897Z,34.70
2017-05-28T13:35:54.124Z,34.10
2017-05-28T13:38:22.453Z,37.30
2017-05-28T13:40:50.682Z,34.60
2017-05-28T13:43:18.160Z,34.60
2017-05-28T13:45:46.453Z,37.20
2017-05-28T13:48:14.736Z,33.80
2017-05-28T13:50:42.968Z,39.40
2017-05-28T13:53:11.200Z,37.20
2017-05-28T13:55:39.453Z,34.50
2017-05-28T13:58:07.683Z,33.20
2017-05-28T14:00:36.017Z,34.00
2017-05-28T14:03:04.269Z,33.50
2017-05-28T14:05:32.492Z,33.00
2017-05-28T14:08:00.715Z,34.10
2017-05-28T14:10:28.947Z,33.70
2017-05-28T14:12:57.179Z,34.00
2017-05-28T14:15:25.419Z,33.10
2017-05-28T14:17:53.653Z,33.70
2017-05-28T14:20:21.895Z,33.80
2017-05-28T14:22:50.122Z,34.00
2017-05-28T14:25:18.358Z,34.00
2017-05-28T14:27:46.593Z,33.80
2017-05-28T14:30:14.911Z,34.10
2017-05-28T14:32:43.142Z,34.20
2017-05-28T14:35:11.375Z,34.10
2017-05-28T14:37:39.613Z,34.30
2017-05-28T14:40:07.866Z,33.90
2017-05-28T14:42:36.184Z,34.90
2017-05-28T14:45:04.456Z,34.20
2017-05-28T14:47:32.681Z,33.00
2017-05-28T14:50:00.915Z,33.40
2017-05-28T14:52:29.158Z,33.70
2017-05-28T14:54:57.452Z,33.50
2017-05-28T14:57:25.686Z,32.80
2017-05-28T14:59:54.004Z,32.40
2017-05-28T15:02:22.279Z,32.80
2017-05-28T15:04:50.509Z,33.10
2017-05-28T15:07:18.738Z,32.90
2017-05-28T15:09:47.519Z,32.00
2017-05-28T15:12:15.754Z,32.50
2017-05-28T15:14:43.989Z,34.60
2017-05-28T15:17:12.249Z,31.30
2017-05-28T15:19:40.477Z,32.20
2017-05-28T15:22:08.702Z,33.30
2017-05-28T15:24:36.964Z,34.00
2017-05-28T15:27:05.191Z,33.60
2017-05-28T15:29:33.508Z,35.30
2017-05-28T15:32:01.746Z,33.90
2017-05-28T15:34:29.984Z,33.30
2017-05-28T15:36:58.215Z,34.90
2017-05-28T15:39:26.453Z,31.60
2017-05-28T15:41:54.779Z,32.70
2017-05-28T15:44:23.028Z,33.70
2017-05-28T15:46:50.484Z,33.80
2017-05-28T15:49:18.714Z,34.50
2017-05-28T15:51:46.949Z,33.90
2017-05-28T15:54:15.244Z,34.70
2017-05-28T15:56:43.478Z,34.20
2017-05-28T15:59:10.977Z,34.20
2017-05-28T16:01:39.212Z,35.00
2017-05-28T16:04:07.435Z,34.90
2017-05-28T16:06:35.667Z,34.00
2017-05-28T16:09:03.896Z,34.60
2017-05-28T16:11:32.130Z,34.80
2017-05-28T16:14:00.363Z,34.60
2017-05-28T16:16:28.597Z,34.00
2017-05-28T16:18:56.827Z,34.80
2017-05-28T16:21:25.139Z,34.30
2017-05-28T16:23:53.366Z,34.50
2017-05-28T16:26:21.694Z,35.00
2017-05-28T16:28:49.979Z,34.20
2017-05-28T16:31:18.243Z,34.20
2017-05-28T16:33:46.529Z,34.30
2017-05-28T16:36:13.979Z,34.30
2017-05-28T16:38:42.221Z,35.50
2017-05-28T16:41:10.452Z,34.60
2017-05-28T16:43:38.683Z,34.00
2017-05-28T16:46:06.912Z,33.30
2017-05-28T16:48:35.154Z,33.50
2017-05-28T16:51:03.382Z,33.90
2017-05-28T16:53:31.616Z,33.80
2017-05-28T16:55:59.853Z,33.50
2017-05-28T16:58:28.087Z,36.60
2017-05-28T17:00:56.320Z,33.30
2017-05-28T17:03:24.549Z,34.20
2017-05-28T17:05:52.778Z,34.10
2017-05-28T17:08:21.000Z,34.80
2017-05-28T17:10:49.242Z,34.30
2017-05-28T17:13:17.504Z,34.70
2017-05-28T17:15:45.779Z,34.70
2017-05-28T17:18:14.008Z,35.60
2017-05-28T17:20:42.242Z,34.80
2017-05-28T17:23:10.479Z,36.20
2017-05-28T17:25:38.711Z,37.40
2017-05-28T17:28:07.105Z,37.20
2017-05-28T17:30:35.344Z,38.30
2017-05-28T17:33:03.563Z,38.00
2017-05-28T17:35:31.790Z,38.10
2017-05-28T17:38:00.022Z,39.00
2017-05-28T17:40:28.247Z,39.30
2017-05-28T17:42:56.487Z,40.30
2017-05-28T17:45:24.775Z,40.60
2017-05-28T17:47:53.007Z,40.80
2017-05-28T17:50:21.238Z,40.30
2017-05-28T17:52:49.476Z,40.20
2017-05-28T17:55:17.703Z,40.20
2017-05-28T17:57:45.947Z,40.50
2017-05-28T18:00:14.174Z,41.10
2017-05-28T18:02:42.411Z,41.10
2017-05-28T18:05:10.639Z,41.60
2017-05-28T18:07:38.940Z,41.50
2017-05-28T18:10:07.171Z,41.50
2017-05-28T18:12:35.406Z,41.60
2017-05-28T18:15:03.633Z,42.10
2017-05-28T18:17:31.866Z,42.50
2017-05-28T18:20:00.103Z,43.00
2017-05-28T18:22:28.328Z,43.00
2017-05-28T18:24:56.567Z,42.60
2017-05-28T18:27:24.843Z,42.80
2017-05-28T18:29:53.112Z,43.80
2017-05-28T18:32:21.338Z,44.10
2017-05-28T18:34:49.569Z,44.20
2017-05-28T18:37:17.802Z,44.50
2017-05-28T18:39:46.035Z,44.40
2017-05-28T18:42:14.267Z,45.00
2017-05-28T18:44:42.519Z,45.20
2017-05-28T18:47:10.739Z,45.80
2017-05-28T18:49:38.975Z,46.40
2017-05-28T18:52:07.287Z,45.10
2017-05-28T18:54:35.515Z,45.90
2017-05-28T18:57:03.739Z,46.10
2017-05-28T18:59:31.970Z,46.20
2017-05-28T19:02:00.207Z,47.80
2017-05-28T19:04:28.440Z,47.30
2017-05-28T19:06:56.678Z,47.70
2017-05-28T19:09:24.907Z,47.30
2017-05-28T19:11:53.140Z,48.10
2017-05-28T19:14:21.362Z,48.40
2017-05-28T19:16:49.612Z,49.20
2017-05-28T19:19:17.839Z,49.00
2017-05-28T19:21:46.094Z,48.90
2017-05-28T19:24:14.327Z,50.00
2017-05-28T19:26:42.626Z,50.50
2017-05-28T19:29:10.900Z,50.40
2017-05-28T19:31:39.119Z,50.50
2017-05-28T19:34:07.352Z,50.50
2017-05-28T19:36:35.578Z,50.60
2017-05-28T19:39:03.827Z,51.30
2017-05-28T19:41:32.047Z,53.00
2017-05-28T19:44:00.283Z,54.50
2017-05-28T19:46:28.616Z,56.10
2017-05-28T19:48:56.856Z,56.10
2017-05-28T19:51:25.088Z,56.00
2017-05-28T19:53:53.318Z,55.90
2017-05-28T19:56:21.626Z,54.70
2017-05-28T19:58:49.878Z,53.60
2017-05-28T20:01:18.115Z,53.20
2017-05-28T20:03:46.339Z,54.50
2017-05-28T20:06:14.570Z,55.70
2017-05-28T20:08:42.896Z,56.20
2017-05-28T20:11:11.142Z,56.80
2017-05-28T20:13:39.438Z,57.30
2017-05-28T20:16:07.677Z,57.60
2017-05-28T20:18:35.139Z,57.60
2017-05-28T20:21:03.374Z,59.40
2017-05-28T20:23:31.604Z,60.20
2017-05-28T20:25:59.894Z,62.50
2017-05-28T20:28:28.185Z,62.80
2017-05-28T20:30:56.438Z,64.20
2017-05-28T20:33:24.666Z,64.40
2017-05-28T20:35:52.895Z,65.30
2017-05-28T20:38:21.126Z,65.80
2017-05-28T20:40:49.358Z,65.10
2017-05-28T20:43:17.587Z,65.50
2017-05-28T20:45:45.818Z,66.10
2017-05-28T20:48:14.085Z,66.40
2017-05-28T20:50:41.549Z,66.40
2017-05-28T20:53:09.792Z,66.00
2017-05-28T20:55:38.019Z,65.80
2017-05-28T20:58:06.259Z,67.00
2017-05-28T21:00:34.541Z,65.40
2017-05-28T21:03:02.899Z,67.20
2017-05-28T21:05:31.131Z,68.00
2017-05-28T21:07:59.356Z,68.80
2017-05-28T21:10:27.586Z,69.40
2017-05-28T21:12:55.815Z,68.80
2017-05-28T21:15:24.079Z,67.00
2017-05-28T21:17:52.311Z,66.60
2017-05-28T21:20:20.641Z,65.80
2017-05-28T21:22:48.908Z,67.10
2017-05-28T21:25:17.143Z,65.80
2017-05-28T21:27:45.377Z,65.60
2017-05-28T21:30:13.632Z,65.90
2017-05-28T21:32:41.858Z,65.50
2017-05-28T21:35:10.099Z,65.60
2017-05-28T21:37:38.336Z,65.50
2017-05-28T21:40:06.633Z,64.50
2017-05-28T21:42:34.859Z,64.50
2017-05-28T21:45:03.084Z,64.50
2017-05-28T21:47:31.360Z,64.30
2017-05-28T21:49:59.627Z,63.80
2017-05-28T21:52:27.871Z,63.20
2017-05-28T21:54:56.095Z,64.90
2017-05-28T21:57:24.327Z,67.30
2017-05-28T22:02:38.391Z,70.20
2017-05-28T22:05:06.624Z,71.00
2017-05-28T22:07:34.854Z,71.00
2017-05-28T22:10:03.138Z,72.30
2017-05-28T22:12:31.416Z,72.80
2017-05-28T22:14:59.642Z,72.70
2017-05-28T22:17:27.971Z,73.50
2017-05-28T22:19:56.200Z,72.70
2017-05-28T22:22:24.514Z,74.10
2017-05-28T22:24:52.793Z,73.80
2017-05-28T22:27:21.022Z,73.90
2017-05-28T22:29:49.259Z,73.70
2017-05-28T22:32:17.499Z,72.40
2017-05-28T22:34:45.782Z,71.30
2017-05-28T22:37:14.017Z,73.50
2017-05-28T22:39:42.344Z,74.00
2017-05-28T22:42:10.617Z,74.50
2017-05-28T22:44:38.843Z,75.00
2017-05-28T22:47:06.351Z,75.00
2017-05-28T22:49:34.575Z,76.30
2017-05-28T22:52:02.898Z,74.80
2017-05-28T22:54:31.128Z,74.00
2017-05-28T22:56:59.351Z,73.80
2017-05-28T22:59:27.585Z,75.10
2017-05-28T23:01:55.803Z,74.90
2017-05-28T23:04:24.030Z,73.60
2017-05-28T23:06:52.270Z,73.20
2017-05-28T23:09:20.502Z,73.50
2017-05-28T23:11:48.943Z,75.30
2017-05-28T23:14:17.180Z,74.50
2017-05-28T23:16:45.407Z,73.90
2017-05-28T23:19:13.633Z,72.80
2017-05-28T23:21:41.863Z,72.70
2017-05-28T23:24:10.178Z,72.80
2017-05-28T23:26:38.439Z,72.90
2017-05-28T23:29:06.669Z,72.90
2017-05-28T23:31:34.994Z,72.90
2017-05-28T23:34:03.223Z,72.70
2017-05-28T23:36:31.552Z,72.60
2017-05-28T23:38:59.783Z,72.30
2017-05-28T23:41:28.015Z,73.10
2017-05-28T23:43:56.275Z,72.70
2017-05-28T23:46:24.500Z,73.30
2017-05-28T23:48:52.743Z,74.00
2017-05-28T23:51:20.962Z,74.20
2017-05-28T23:53:49.274Z,73.50
2017-05-28T23:56:17.558Z,72.30
2017-05-28T23:58:45.782Z,71.60
